createdAt,value
2022-10-05T00:01:27.069Z,0.40
2022-10-05T00:04:01.163Z,0.20
2022-10-05T00:06:31.137Z,0.10
2022-10-05T00:09:02.400Z,0.13
2022-10-05T00:11:30.406Z,0.10
2022-10-05T00:13:59.851Z,0.20
2022-10-05T00:16:27.903Z,0.20
2022-10-05T00:18:55.934Z,0.28
2022-10-05T00:21:26.252Z,0.20
2022-10-05T00:23:56.862Z,0.15
2022-10-05T00:26:27.735Z,0.20
2022-10-05T00:28:56.059Z,0.20
2022-10-05T00:31:26.566Z,0.15
2022-10-05T00:33:55.130Z,0.10
2022-10-05T00:36:23.769Z,0.10
2022-10-05T00:38:51.761Z,0.13
2022-10-05T00:41:25.977Z,0.15
2022-10-05T00:44:10.328Z,1.42
2022-10-05T00:46:51.555Z,0.20
2022-10-05T00:49:29.840Z,0.20
2022-10-05T00:52:07.619Z,0.20
2022-10-05T00:54:41.673Z,0.20
2022-10-05T00:57:24.903Z,0.13
2022-10-05T01:00:03.785Z,0.30
2022-10-05T01:02:42.134Z,0.20
2022-10-05T01:05:17.119Z,0.20
2022-10-05T01:07:51.033Z,0.10
2022-10-05T01:10:28.036Z,0.10
2022-10-05T01:13:05.969Z,0.13
2022-10-05T01:15:40.787Z,0.20
2022-10-05T01:18:17.112Z,0.60
2022-10-05T01:20:54.130Z,0.20
2022-10-05T01:23:58.908Z,0.20
2022-10-05T01:26:55.034Z,0.30
2022-10-05T01:29:28.944Z,0.20
2022-10-05T01:32:06.902Z,0.17
2022-10-05T01:34:39.648Z,0.35
2022-10-05T01:37:16.320Z,0.10
2022-10-05T01:39:51.549Z,0.10
2022-10-05T01:42:28.743Z,0.22
2022-10-05T01:45:06.202Z,0.28
2022-10-05T01:47:43.454Z,0.20
2022-10-05T01:50:20.751Z,0.10
2022-10-05T01:52:55.534Z,0.10
2022-10-05T01:55:32.535Z,0.20
2022-10-05T01:58:08.772Z,0.10
2022-10-05T02:00:46.408Z,0.10
2022-10-05T02:03:24.682Z,0.20
2022-10-05T02:05:57.678Z,0.10
2022-10-05T02:08:32.076Z,0.20
2022-10-05T02:11:04.758Z,0.20
2022-10-05T02:13:37.623Z,0.20
2022-10-05T02:16:15.204Z,0.13
2022-10-05T02:18:50.800Z,0.10
2022-10-05T02:21:20.986Z,0.20
2022-10-05T02:23:53.738Z,0.10
2022-10-05T02:26:23.541Z,0.20
2022-10-05T02:28:55.795Z,0.50
2022-10-05T02:31:31.807Z,0.20
2022-10-05T02:34:21.380Z,0.20
2022-10-05T02:36:54.792Z,0.20
2022-10-05T02:39:31.170Z,0.30
2022-10-05T02:42:08.583Z,0.20
2022-10-05T02:44:45.220Z,0.20
2022-10-05T02:47:27.982Z,0.10
2022-10-05T02:50:04.396Z,0.22
2022-10-05T02:52:41.445Z,0.20
2022-10-05T02:55:15.931Z,0.15
2022-10-05T02:57:52.130Z,0.20
2022-10-05T03:00:23.058Z,0.20
2022-10-05T03:03:01.103Z,0.20
2022-10-05T03:05:32.066Z,0.20
2022-10-05T03:08:04.841Z,0.30
2022-10-05T03:10:38.194Z,0.20
2022-10-05T03:13:14.046Z,0.22
2022-10-05T03:16:03.901Z,0.10
2022-10-05T03:18:46.195Z,0.10
2022-10-05T03:21:30.171Z,0.20
2022-10-05T03:24:17.897Z,0.17
2022-10-05T03:26:52.555Z,0.10
2022-10-05T03:29:30.263Z,0.25
2022-10-05T03:32:05.256Z,0.20
2022-10-05T03:37:15.076Z,0.20
2022-10-05T03:39:48.116Z,1.27
2022-10-05T03:42:25.352Z,0.13
2022-10-05T03:45:02.812Z,0.17
2022-10-05T03:47:41.145Z,0.20
2022-10-05T03:50:38.211Z,0.20
2022-10-05T03:53:08.670Z,0.10
2022-10-05T03:55:40.688Z,0.20
2022-10-05T03:58:16.057Z,0.65
2022-10-05T04:00:48.249Z,0.10
2022-10-05T04:03:22.414Z,0.13
2022-10-05T04:05:56.319Z,0.73
2022-10-05T04:08:33.711Z,0.20
2022-10-05T04:11:07.172Z,0.20
2022-10-05T04:13:38.500Z,0.10
2022-10-05T04:16:13.991Z,0.20
2022-10-05T04:18:46.558Z,0.30
2022-10-05T04:21:23.958Z,0.10
2022-10-05T04:24:00.446Z,0.10
2022-10-05T04:26:35.119Z,0.10
2022-10-05T04:29:08.928Z,0.20
2022-10-05T04:31:53.386Z,0.20
2022-10-05T04:34:40.096Z,0.10
2022-10-05T04:39:47.716Z,0.20
2022-10-05T04:42:25.659Z,0.20
2022-10-05T04:45:09.781Z,0.13
2022-10-05T04:48:17.232Z,0.10
2022-10-05T04:50:59.379Z,0.20
2022-10-05T04:53:33.070Z,0.20
2022-10-05T04:56:09.206Z,0.20
2022-10-05T04:58:53.861Z,0.25
2022-10-05T05:01:40.585Z,0.20
2022-10-05T05:04:33.432Z,0.20
2022-10-05T05:07:20.098Z,0.10
2022-10-05T05:10:13.622Z,0.20
2022-10-05T05:12:50.910Z,0.20
2022-10-05T05:15:30.239Z,0.20
2022-10-05T05:18:15.991Z,0.10
2022-10-05T05:20:56.088Z,0.15
2022-10-05T05:23:32.882Z,0.10
2022-10-05T05:26:12.873Z,0.10
2022-10-05T05:28:45.697Z,0.20
2022-10-05T05:31:24.762Z,0.20
2022-10-05T05:33:59.857Z,0.10
2022-10-05T05:36:49.923Z,0.15
2022-10-05T05:39:25.980Z,0.20
2022-10-05T05:42:03.263Z,0.10
2022-10-05T05:44:39.054Z,0.20
2022-10-05T05:47:19.999Z,0.10
2022-10-05T05:50:11.646Z,0.10
2022-10-05T05:52:44.225Z,0.52
2022-10-05T05:55:20.484Z,0.20
2022-10-05T05:57:56.650Z,0.10
2022-10-05T06:00:27.832Z,4.18
2022-10-05T06:03:07.541Z,0.10
2022-10-05T06:05:42.457Z,0.50
2022-10-05T06:08:18.094Z,0.15
2022-10-05T06:10:56.167Z,0.10
2022-10-05T06:13:30.062Z,0.10
2022-10-05T06:16:05.329Z,0.10
2022-10-05T06:18:34.060Z,0.10
2022-10-05T06:21:07.987Z,0.10
2022-10-05T06:23:45.360Z,0.10
2022-10-05T06:26:26.724Z,0.10
2022-10-05T06:29:00.322Z,0.15
2022-10-05T06:31:54.197Z,0.10
2022-10-05T06:34:40.015Z,0.10
2022-10-05T06:37:14.570Z,0.20
2022-10-05T06:40:00.949Z,0.10
2022-10-05T06:42:47.534Z,0.20
2022-10-05T06:45:46.532Z,0.10
2022-10-05T06:48:51.035Z,0.00
2022-10-05T06:51:41.475Z,0.10
2022-10-05T06:54:28.357Z,0.05
2022-10-05T06:57:04.167Z,0.03
2022-10-05T06:59:39.011Z,0.10
2022-10-05T07:02:20.098Z,0.08
2022-10-05T07:05:16.884Z,0.10
2022-10-05T07:07:54.840Z,0.00
2022-10-05T07:10:32.142Z,0.10
2022-10-05T07:13:30.707Z,0.10
2022-10-05T07:16:06.556Z,0.10
2022-10-05T07:21:24.986Z,0.10
2022-10-05T07:24:03.774Z,0.10
2022-10-05T07:26:36.837Z,0.20
2022-10-05T07:29:20.935Z,0.10
2022-10-05T07:31:57.010Z,0.10
2022-10-05T07:34:37.941Z,0.10
2022-10-05T07:37:28.131Z,0.10
2022-10-05T07:40:05.814Z,0.13
2022-10-05T07:42:51.872Z,0.13
2022-10-05T07:45:29.491Z,0.10
2022-10-05T07:48:03.813Z,0.10
2022-10-05T07:50:39.766Z,0.30
2022-10-05T07:53:16.854Z,0.20
2022-10-05T07:55:51.273Z,0.10
2022-10-05T07:58:24.738Z,0.20
2022-10-05T08:01:02.935Z,0.20
2022-10-05T08:03:52.273Z,0.17
2022-10-05T08:06:35.948Z,0.20
2022-10-05T08:09:13.821Z,0.20
2022-10-05T08:11:54.571Z,0.20
2022-10-05T08:14:29.765Z,0.10
2022-10-05T08:17:01.417Z,0.30
2022-10-05T08:19:40.377Z,0.20
2022-10-05T08:22:13.935Z,0.30
2022-10-05T08:24:46.964Z,0.20
2022-10-05T08:27:21.458Z,0.20
2022-10-05T08:29:56.922Z,0.10
2022-10-05T08:32:26.884Z,0.13
2022-10-05T08:35:00.360Z,0.20
2022-10-05T08:37:32.665Z,0.20
2022-10-05T08:40:27.064Z,0.20
2022-10-05T08:43:07.161Z,0.30
2022-10-05T08:46:00.952Z,0.10
2022-10-05T08:48:56.359Z,0.20
2022-10-05T08:52:05.624Z,0.20
2022-10-05T08:54:46.816Z,0.20
2022-10-05T08:57:44.903Z,0.20
2022-10-05T09:00:15.225Z,0.10
2022-10-05T09:03:13.196Z,0.20
2022-10-05T09:06:02.706Z,0.20
2022-10-05T09:08:59.554Z,0.20
2022-10-05T09:11:36.238Z,0.25
2022-10-05T09:14:29.289Z,0.20
2022-10-05T09:17:35.903Z,0.20
2022-10-05T09:20:28.673Z,0.95
2022-10-05T09:23:04.183Z,0.40
2022-10-05T09:25:54.284Z,0.43
2022-10-05T09:28:30.493Z,0.32
2022-10-05T09:31:08.268Z,0.10
2022-10-05T09:34:04.512Z,0.20
2022-10-05T09:37:20.212Z,0.20
2022-10-05T09:40:20.745Z,0.20
2022-10-05T09:43:14.741Z,0.20
2022-10-05T09:46:04.587Z,0.20
2022-10-05T09:48:56.877Z,0.20
2022-10-05T09:52:01.199Z,0.20
2022-10-05T09:55:08.306Z,0.28
2022-10-05T10:00:40.865Z,0.20
2022-10-05T10:03:44.392Z,0.20
2022-10-05T10:06:40.404Z,0.20
2022-10-05T10:09:35.158Z,0.30
2022-10-05T10:12:28.457Z,0.20
2022-10-05T10:15:18.498Z,0.28
2022-10-05T10:18:04.675Z,0.43
2022-10-05T10:23:31.740Z,2.58
2022-10-05T10:26:34.076Z,0.20
2022-10-05T10:29:37.054Z,0.20
2022-10-05T10:32:20.938Z,0.20
2022-10-05T10:35:12.902Z,0.20
2022-10-05T10:38:22.331Z,0.20
2022-10-05T10:41:06.898Z,0.10
2022-10-05T10:44:18.156Z,0.20
2022-10-05T10:46:54.814Z,0.20
2022-10-05T10:49:47.912Z,0.20
2022-10-05T10:52:34.307Z,0.22
2022-10-05T10:55:28.479Z,0.30
2022-10-05T10:58:16.323Z,0.20
2022-10-05T11:00:54.686Z,0.20
2022-10-05T11:03:50.330Z,0.17
2022-10-05T11:07:06.703Z,0.20
2022-10-05T11:10:19.872Z,0.20
2022-10-05T11:13:24.790Z,0.20
2022-10-05T11:16:25.237Z,0.10
2022-10-05T11:19:12.198Z,0.20
2022-10-05T11:21:55.527Z,0.38
2022-10-05T11:24:50.587Z,0.20
2022-10-05T11:27:36.999Z,0.20
2022-10-05T11:30:37.012Z,0.17
2022-10-05T11:33:42.932Z,0.20
2022-10-05T11:36:32.623Z,0.13
2022-10-05T11:39:30.456Z,0.22
2022-10-05T11:42:16.500Z,0.20
2022-10-05T11:45:21.900Z,0.20
2022-10-05T11:48:10.934Z,0.20
2022-10-05T11:50:44.493Z,0.20
2022-10-05T11:53:17.105Z,0.30
2022-10-05T11:56:00.656Z,0.35
2022-10-05T11:58:33.176Z,0.20
2022-10-05T12:01:07.759Z,0.22
2022-10-05T12:03:49.270Z,0.20
2022-10-05T12:06:25.726Z,0.20
2022-10-05T12:09:04.767Z,0.20
2022-10-05T12:11:58.537Z,0.20
2022-10-05T12:14:38.234Z,0.22
2022-10-05T12:17:17.961Z,0.30
2022-10-05T12:19:52.446Z,0.20
2022-10-05T12:22:23.759Z,0.35
2022-10-05T12:25:06.653Z,0.20
2022-10-05T12:27:39.841Z,0.20
2022-10-05T12:30:15.958Z,0.20
2022-10-05T12:32:55.909Z,0.20
2022-10-05T12:35:50.185Z,0.20
2022-10-05T12:38:28.522Z,0.20
2022-10-05T12:41:04.311Z,0.20
2022-10-05T12:43:41.602Z,0.20
2022-10-05T12:46:20.678Z,0.17
2022-10-05T12:49:19.211Z,0.20
2022-10-05T12:51:57.035Z,0.20
2022-10-05T12:54:35.025Z,0.10
2022-10-05T12:57:08.422Z,0.10
2022-10-05T12:59:41.923Z,0.28
2022-10-05T13:02:21.721Z,0.20
2022-10-05T13:04:56.610Z,0.25
2022-10-05T13:07:41.912Z,0.15
2022-10-05T13:10:22.586Z,0.20
2022-10-05T13:12:56.818Z,0.30
2022-10-05T13:15:33.864Z,0.20
2022-10-05T13:18:14.018Z,0.20
2022-10-05T13:20:46.982Z,0.20
2022-10-05T13:23:22.797Z,0.28
2022-10-05T13:25:57.636Z,0.20
2022-10-05T13:28:31.213Z,0.20
2022-10-05T13:31:04.705Z,0.20
2022-10-05T13:33:54.395Z,0.20
2022-10-05T13:36:31.374Z,0.13
2022-10-05T13:39:06.134Z,0.20
2022-10-05T13:41:50.720Z,0.20
2022-10-05T13:44:26.944Z,0.30
2022-10-05T13:47:02.862Z,0.20
2022-10-05T13:49:38.005Z,0.22
2022-10-05T13:52:21.163Z,0.20
2022-10-05T13:54:59.900Z,0.20
2022-10-05T13:57:48.058Z,0.30
2022-10-05T14:00:22.696Z,0.20
2022-10-05T14:02:56.568Z,0.20
2022-10-05T14:05:27.011Z,0.10
2022-10-05T14:07:58.500Z,0.20
2022-10-05T14:10:35.262Z,0.20
2022-10-05T14:13:19.519Z,0.25
2022-10-05T14:16:04.898Z,0.17
2022-10-05T14:18:35.401Z,0.20
2022-10-05T14:21:16.461Z,0.20
2022-10-05T14:23:45.058Z,0.28
2022-10-05T14:26:32.630Z,0.20
2022-10-05T14:29:03.635Z,0.20
2022-10-05T14:31:58.301Z,0.20
2022-10-05T14:34:31.925Z,0.28
2022-10-05T14:37:04.820Z,0.30
2022-10-05T14:39:35.976Z,0.30
2022-10-05T14:42:17.906Z,0.20
2022-10-05T14:44:46.783Z,0.30
2022-10-05T14:47:26.614Z,0.20
2022-10-05T14:50:14.008Z,0.20
2022-10-05T14:52:51.859Z,0.43
2022-10-05T14:55:37.394Z,0.30
2022-10-05T14:58:18.068Z,0.20
2022-10-05T15:00:56.997Z,0.20
2022-10-05T15:03:38.261Z,0.35
2022-10-05T15:06:13.846Z,0.20
2022-10-05T15:08:54.141Z,0.20
2022-10-05T15:11:34.523Z,0.20
2022-10-05T15:14:14.052Z,0.13
2022-10-05T15:16:42.897Z,0.20
2022-10-05T15:19:17.919Z,0.20
2022-10-05T15:22:03.719Z,0.30
2022-10-05T15:24:43.758Z,0.20
2022-10-05T15:27:26.286Z,0.30
2022-10-05T15:30:04.882Z,0.30
2022-10-05T15:32:44.769Z,0.30
2022-10-05T15:35:43.943Z,0.28
2022-10-05T15:38:23.765Z,0.20
2022-10-05T15:41:02.642Z,0.30
2022-10-05T15:43:47.083Z,0.25
2022-10-05T15:46:23.348Z,0.20
2022-10-05T15:49:04.114Z,0.20
2022-10-05T15:51:50.250Z,0.20
2022-10-05T15:54:42.606Z,0.30
2022-10-05T15:57:20.445Z,0.28
2022-10-05T15:59:59.413Z,0.30
2022-10-05T16:02:38.837Z,0.20
2022-10-05T16:05:43.923Z,0.30
2022-10-05T16:08:41.375Z,0.20
2022-10-05T16:11:19.277Z,0.20
2022-10-05T16:13:59.768Z,0.30
2022-10-05T16:16:35.158Z,0.25
2022-10-05T16:19:12.671Z,0.20
2022-10-05T16:21:52.995Z,0.20
2022-10-05T16:24:42.567Z,0.20
2022-10-05T16:27:17.357Z,0.30
2022-10-05T16:29:52.870Z,0.20
2022-10-05T16:32:24.424Z,0.20
2022-10-05T16:35:03.985Z,0.30
2022-10-05T16:37:44.375Z,0.38
2022-10-05T16:40:19.326Z,0.30
2022-10-05T16:42:58.612Z,0.20
2022-10-05T16:45:44.965Z,0.20
2022-10-05T16:48:21.080Z,0.20
2022-10-05T16:53:28.292Z,0.17
2022-10-05T16:56:02.948Z,0.30
2022-10-05T16:58:44.656Z,0.10
2022-10-05T17:01:24.473Z,0.20
2022-10-05T17:04:10.478Z,0.22
2022-10-05T17:06:54.167Z,0.25
2022-10-05T17:09:42.011Z,0.20
2022-10-05T17:12:30.338Z,0.25
2022-10-05T17:15:29.727Z,0.20
2022-10-05T17:18:24.826Z,0.47
2022-10-05T17:20:59.063Z,0.65
2022-10-05T17:23:51.718Z,1.00
2022-10-05T17:26:45.375Z,1.42
2022-10-05T17:29:18.625Z,1.00
2022-10-05T17:32:10.833Z,1.52
2022-10-05T17:34:40.617Z,1.15
2022-10-05T17:37:35.259Z,0.90
2022-10-05T17:41:06.495Z,0.73
2022-10-05T17:43:36.036Z,1.83
2022-10-05T17:46:06.781Z,1.35
2022-10-05T17:49:08.350Z,0.98
2022-10-05T17:52:16.860Z,1.25
2022-10-05T17:55:30.241Z,0.68
2022-10-05T17:58:04.041Z,1.15
2022-10-05T18:00:42.099Z,1.73
2022-10-05T18:03:36.447Z,0.85
2022-10-05T18:06:31.910Z,1.80
2022-10-05T18:09:21.959Z,1.17
2022-10-05T18:12:25.356Z,2.85
2022-10-05T18:15:22.312Z,1.33
2022-10-05T18:17:54.707Z,2.35
2022-10-05T18:20:31.603Z,1.80
2022-10-05T18:23:35.901Z,2.45
2022-10-05T18:26:09.211Z,2.08
2022-10-05T18:28:54.101Z,2.03
2022-10-05T18:31:34.259Z,2.40
2022-10-05T18:34:23.072Z,2.28
2022-10-05T18:37:01.915Z,1.95
2022-10-05T18:39:53.052Z,2.38
2022-10-05T18:42:31.402Z,0.88
2022-10-05T18:45:09.296Z,1.70
2022-10-05T18:47:48.130Z,2.03
2022-10-05T18:50:26.884Z,1.90
2022-10-05T18:53:07.796Z,1.17
2022-10-05T18:55:39.639Z,1.45
2022-10-05T18:58:18.076Z,1.10
2022-10-05T19:01:00.043Z,1.95
2022-10-05T19:03:36.643Z,1.27
2022-10-05T19:06:15.491Z,2.03
2022-10-05T19:08:53.041Z,2.00
2022-10-05T19:11:30.192Z,0.85
2022-10-05T19:14:04.774Z,1.20
2022-10-05T19:16:48.554Z,2.25
2022-10-05T19:19:35.079Z,1.92
2022-10-05T19:22:09.065Z,1.85
2022-10-05T19:24:50.848Z,2.92
2022-10-05T19:27:28.186Z,1.42
2022-10-05T19:30:14.787Z,1.67
2022-10-05T19:33:08.450Z,1.58
2022-10-05T19:35:53.759Z,1.90
2022-10-05T19:38:31.801Z,1.80
2022-10-05T19:41:11.387Z,1.83
2022-10-05T19:44:02.267Z,2.15
2022-10-05T19:46:54.728Z,1.50
2022-10-05T19:49:59.123Z,0.77
2022-10-05T19:52:37.765Z,1.67
2022-10-05T19:55:16.057Z,1.48
2022-10-05T19:57:48.798Z,1.17
2022-10-05T20:00:22.397Z,1.05
2022-10-05T20:03:10.319Z,0.90
2022-10-05T20:05:38.584Z,1.50
2022-10-05T20:08:08.526Z,1.95
2022-10-05T20:10:36.763Z,3.30
2022-10-05T20:13:08.717Z,2.17
2022-10-05T20:15:55.082Z,2.38
2022-10-05T20:19:06.729Z,1.98
2022-10-05T20:21:43.864Z,1.42
2022-10-05T20:24:14.797Z,1.65
2022-10-05T20:27:05.219Z,1.25
2022-10-05T20:29:36.551Z,2.42
2022-10-05T20:32:08.724Z,1.35
2022-10-05T20:34:38.056Z,0.93
2022-10-05T20:37:06.035Z,1.48
2022-10-05T20:39:35.418Z,1.67
2022-10-05T20:42:03.823Z,1.13
2022-10-05T20:44:32.321Z,1.15
2022-10-05T20:47:01.501Z,0.77
2022-10-05T20:49:31.082Z,1.42
2022-10-05T20:52:00.093Z,1.70
2022-10-05T20:54:28.611Z,1.00
2022-10-05T20:56:58.380Z,1.52
2022-10-05T20:59:26.949Z,2.05
2022-10-05T21:01:55.746Z,1.38
2022-10-05T21:04:25.336Z,1.42
2022-10-05T21:06:54.282Z,0.70
2022-10-05T21:09:22.904Z,1.95
2022-10-05T21:11:52.989Z,1.42
2022-10-05T21:14:23.477Z,2.60
2022-10-05T21:16:52.564Z,0.85
2022-10-05T21:19:20.763Z,0.65
2022-10-05T21:21:48.789Z,1.30
2022-10-05T21:24:17.390Z,1.33
2022-10-05T21:26:46.032Z,2.58
2022-10-05T21:29:14.283Z,1.08
2022-10-05T21:31:43.690Z,0.95
2022-10-05T21:34:11.852Z,1.33
2022-10-05T21:36:40.093Z,3.17
2022-10-05T21:39:08.143Z,2.55
2022-10-05T21:41:36.154Z,3.20
2022-10-05T21:44:06.331Z,2.38
2022-10-05T21:46:37.243Z,3.00
2022-10-05T21:49:07.326Z,1.83
2022-10-05T21:51:36.639Z,1.73
2022-10-05T21:54:10.370Z,0.80
2022-10-05T21:56:41.576Z,1.50
2022-10-05T21:59:12.787Z,0.93
2022-10-05T22:01:41.081Z,1.25
2022-10-05T22:04:10.536Z,0.77
2022-10-05T22:06:38.797Z,1.02
2022-10-05T22:09:07.329Z,1.55
2022-10-05T22:11:35.513Z,1.67
2022-10-05T22:14:03.584Z,2.55
2022-10-05T22:16:33.469Z,1.65
2022-10-05T22:19:05.204Z,1.33
2022-10-05T22:21:37.945Z,2.05
2022-10-05T22:24:06.719Z,1.30
2022-10-05T22:26:36.025Z,1.05
2022-10-05T22:29:04.873Z,1.58
2022-10-05T22:31:32.955Z,0.85
2022-10-05T22:34:01.014Z,0.90
2022-10-05T22:36:29.465Z,1.05
2022-10-05T22:38:58.854Z,1.67
2022-10-05T22:41:27.055Z,1.25
2022-10-05T22:43:55.001Z,1.48
2022-10-05T22:46:23.074Z,1.58
2022-10-05T22:48:51.334Z,0.75
2022-10-05T22:51:19.554Z,0.73
2022-10-05T22:53:47.531Z,0.55
2022-10-05T22:56:17.335Z,0.95
2022-10-05T22:58:45.872Z,1.15
2022-10-05T23:01:16.801Z,0.88
2022-10-05T23:03:45.580Z,1.20
2022-10-05T23:06:15.645Z,0.85
2022-10-05T23:08:44.304Z,0.93
2022-10-05T23:11:15.068Z,0.45
2022-10-05T23:13:45.047Z,0.82
2022-10-05T23:16:15.415Z,1.52
2022-10-05T23:18:44.259Z,0.90
2022-10-05T23:21:12.731Z,0.77
2022-10-05T23:23:42.672Z,0.77
2022-10-05T23:26:12.459Z,0.52
2022-10-05T23:28:43.115Z,0.95
2022-10-05T23:31:12.703Z,0.55
2022-10-05T23:33:40.730Z,1.33
2022-10-05T23:36:11.155Z,0.40
2022-10-05T23:38:39.130Z,0.52
2022-10-05T23:41:08.764Z,0.47
2022-10-05T23:43:37.337Z,0.70
2022-10-05T23:46:07.253Z,0.70
2022-10-05T23:48:38.692Z,1.60
2022-10-05T23:51:07.853Z,0.80
2022-10-05T23:53:36.361Z,0.50
2022-10-05T23:56:05.015Z,0.38
2022-10-05T23:58:33.104Z,0.80
